createdAt,value
2017-10-17T00:01:31.717Z,11.80
2017-10-17T00:03:59.286Z,11.80
2017-10-17T00:06:26.891Z,11.70
2017-10-17T00:08:55.235Z,11.70
2017-10-17T00:11:22.822Z,11.70
2017-10-17T00:13:51.167Z,11.70
2017-10-17T00:16:18.788Z,11.60
2017-10-17T00:18:47.160Z,11.70
2017-10-17T00:21:14.715Z,11.60
2017-10-17T00:23:43.040Z,11.70
2017-10-17T00:26:10.624Z,11.70
2017-10-17T00:28:38.222Z,11.60
2017-10-17T00:31:05.803Z,11.60
2017-10-17T00:33:33.370Z,11.60
2017-10-17T00:36:08.852Z,11.60
2017-10-17T00:38:38.290Z,11.60
2017-10-17T00:41:07.812Z,11.60
2017-10-17T00:43:35.382Z,11.70
2017-10-17T00:46:03.041Z,11.70
2017-10-17T00:48:30.784Z,11.70
2017-10-17T00:51:00.013Z,11.70
2017-10-17T00:53:27.591Z,11.70
2017-10-17T00:55:55.168Z,11.70
2017-10-17T00:58:23.632Z,11.70
2017-10-17T01:00:51.197Z,11.70
2017-10-17T01:03:18.761Z,11.70
2017-10-17T01:05:46.374Z,11.70
2017-10-17T01:08:13.942Z,11.70
2017-10-17T01:10:41.493Z,11.70
2017-10-17T01:13:09.060Z,11.70
2017-10-17T01:15:36.731Z,11.70
2017-10-17T01:18:04.307Z,11.70
2017-10-17T01:20:33.641Z,11.70
2017-10-17T01:23:01.222Z,11.70
2017-10-17T01:25:29.635Z,11.60
2017-10-17T01:28:00.802Z,11.60
2017-10-17T01:30:28.422Z,11.60
2017-10-17T01:32:56.018Z,11.60
2017-10-17T01:35:23.663Z,11.60
2017-10-17T01:37:51.221Z,11.60
2017-10-17T01:40:20.645Z,11.50
2017-10-17T01:42:48.277Z,11.50
2017-10-17T01:45:18.386Z,11.50
2017-10-17T01:47:45.977Z,11.50
2017-10-17T01:50:23.481Z,11.50
2017-10-17T01:52:51.836Z,11.40
2017-10-17T01:55:19.422Z,11.50
2017-10-17T01:57:50.453Z,11.40
2017-10-17T02:00:18.023Z,11.40
2017-10-17T02:02:45.573Z,11.40
2017-10-17T02:05:13.143Z,11.50
2017-10-17T02:07:44.333Z,11.50
2017-10-17T02:10:19.311Z,11.50
2017-10-17T02:12:46.873Z,11.50
2017-10-17T02:15:14.557Z,11.50
2017-10-17T02:18:08.886Z,11.40
2017-10-17T02:20:36.464Z,11.40
2017-10-17T02:23:04.085Z,11.30
2017-10-17T02:25:31.654Z,11.40
2017-10-17T02:28:18.619Z,11.30
2017-10-17T02:30:47.129Z,11.20
2017-10-17T02:33:19.641Z,11.20
2017-10-17T02:35:47.987Z,11.20
2017-10-17T02:38:15.608Z,11.10
2017-10-17T02:40:53.118Z,11.20
2017-10-17T02:43:24.257Z,11.20
2017-10-17T02:45:51.800Z,11.10
2017-10-17T02:48:21.764Z,11.10
2017-10-17T02:50:49.330Z,11.10
2017-10-17T02:53:17.043Z,11.10
2017-10-17T02:55:44.621Z,11.10
2017-10-17T02:58:13.138Z,11.00
2017-10-17T03:00:40.698Z,11.00
2017-10-17T03:03:25.851Z,11.00
2017-10-17T03:05:53.440Z,10.90
2017-10-17T03:08:21.760Z,10.90
2017-10-17T03:10:49.351Z,10.90
2017-10-17T03:13:16.940Z,10.90
2017-10-17T03:15:49.862Z,10.90
2017-10-17T03:18:17.477Z,10.90
2017-10-17T03:20:45.908Z,10.80
2017-10-17T03:23:24.259Z,10.80
2017-10-17T03:25:51.845Z,10.80
2017-10-17T03:28:20.192Z,10.80
2017-10-17T03:30:50.608Z,10.70
2017-10-17T03:33:21.057Z,10.70
2017-10-17T03:35:48.637Z,10.70
2017-10-17T03:38:30.740Z,10.70
2017-10-17T03:41:02.044Z,10.60
2017-10-17T03:43:37.265Z,10.60
2017-10-17T03:46:04.844Z,10.60
2017-10-17T03:48:32.394Z,10.50
2017-10-17T03:51:02.839Z,10.50
2017-10-17T03:53:50.961Z,10.50
2017-10-17T03:56:22.300Z,10.50
2017-10-17T03:58:49.887Z,10.50
2017-10-17T04:01:30.190Z,10.50
2017-10-17T04:04:12.174Z,10.30
2017-10-17T04:06:43.409Z,10.30
2017-10-17T04:09:11.002Z,10.30
2017-10-17T04:11:38.619Z,10.30
2017-10-17T04:17:37.162Z,10.30
2017-10-17T04:20:10.274Z,10.20
2017-10-17T04:22:39.696Z,10.20
2017-10-17T04:25:13.103Z,10.20
2017-10-17T04:27:49.488Z,10.30
2017-10-17T04:30:26.969Z,10.20
2017-10-17T04:33:15.019Z,10.20
2017-10-17T04:35:46.327Z,10.20
2017-10-17T04:38:13.887Z,10.20
2017-10-17T04:40:46.009Z,10.20
2017-10-17T04:43:26.263Z,10.20
2017-10-17T04:45:56.390Z,10.20
2017-10-17T04:48:39.433Z,10.20
2017-10-17T04:51:26.609Z,10.20
2017-10-17T04:54:27.940Z,10.20
2017-10-17T04:57:01.124Z,10.10
2017-10-17T04:59:38.334Z,10.10
2017-10-17T05:02:33.374Z,10.10
2017-10-17T05:05:05.642Z,10.10
2017-10-17T05:07:52.892Z,10.10
2017-10-17T05:10:23.403Z,10.00
2017-10-17T05:13:13.145Z,10.00
2017-10-17T05:15:41.682Z,10.00
2017-10-17T05:18:21.977Z,10.00
2017-10-17T05:20:49.559Z,10.00
2017-10-17T05:23:22.809Z,10.00
2017-10-17T05:25:52.979Z,9.90
2017-10-17T05:28:32.106Z,9.90
2017-10-17T05:31:17.304Z,9.90
2017-10-17T05:37:03.635Z,9.90
2017-10-17T05:39:33.186Z,9.80
2017-10-17T05:42:02.278Z,9.80
2017-10-17T05:44:48.407Z,9.80
2017-10-17T05:47:20.291Z,9.80
2017-10-17T05:50:04.386Z,9.70
2017-10-17T05:52:33.778Z,9.80
2017-10-17T05:55:01.353Z,9.70
2017-10-17T05:57:28.925Z,9.80
2017-10-17T05:59:56.479Z,9.80
2017-10-17T06:02:24.054Z,9.70
2017-10-17T06:04:52.396Z,9.70
2017-10-17T06:07:19.978Z,9.70
2017-10-17T06:09:47.528Z,9.70
2017-10-17T06:12:15.070Z,9.70
2017-10-17T06:14:42.643Z,9.70
2017-10-17T06:17:10.189Z,9.70
2017-10-17T06:19:37.791Z,9.70
2017-10-17T06:22:06.110Z,9.70
2017-10-17T06:24:33.686Z,9.70
2017-10-17T06:27:01.248Z,9.70
2017-10-17T06:29:28.820Z,9.70
2017-10-17T06:31:56.381Z,9.70
2017-10-17T06:34:23.949Z,9.70
2017-10-17T06:36:51.513Z,9.70
2017-10-17T06:39:19.062Z,9.80
2017-10-17T06:41:46.661Z,9.80
2017-10-17T06:44:14.982Z,9.90
2017-10-17T06:46:42.547Z,9.90
2017-10-17T06:49:10.097Z,10.00
2017-10-17T06:51:37.649Z,10.00
2017-10-17T06:54:05.212Z,10.00
2017-10-17T06:56:32.793Z,10.00
2017-10-17T06:59:00.362Z,10.10
2017-10-17T07:01:27.916Z,10.20
2017-10-17T07:03:55.506Z,10.20
2017-10-17T07:06:23.076Z,10.30
2017-10-17T07:08:51.431Z,10.40
2017-10-17T07:11:18.986Z,10.40
2017-10-17T07:13:46.555Z,10.50
2017-10-17T07:16:14.109Z,10.60
2017-10-17T07:18:41.716Z,10.60
2017-10-17T07:21:09.262Z,10.60
2017-10-17T07:23:37.586Z,10.90
2017-10-17T07:26:05.166Z,10.90
2017-10-17T07:28:32.726Z,11.00
2017-10-17T07:31:00.301Z,11.10
2017-10-17T07:33:27.852Z,11.20
2017-10-17T07:35:55.427Z,11.30
2017-10-17T07:38:23.008Z,11.30
2017-10-17T07:40:51.317Z,11.50
2017-10-17T07:43:18.919Z,11.50
2017-10-17T07:45:46.506Z,11.60
2017-10-17T07:48:14.832Z,11.80
2017-10-17T07:50:42.390Z,11.80
2017-10-17T07:53:09.961Z,12.00
2017-10-17T07:55:37.521Z,12.10
2017-10-17T07:58:05.105Z,12.20
2017-10-17T08:00:32.649Z,12.40
2017-10-17T08:03:00.243Z,12.50
2017-10-17T08:05:28.593Z,12.70
2017-10-17T08:07:56.166Z,12.70
2017-10-17T08:10:23.718Z,12.90
2017-10-17T08:12:51.293Z,12.90
2017-10-17T08:15:19.633Z,13.30
2017-10-17T08:17:47.185Z,13.30
2017-10-17T08:20:14.769Z,13.40
2017-10-17T08:22:42.332Z,13.50
2017-10-17T08:25:09.981Z,13.60
2017-10-17T08:27:38.324Z,13.80
2017-10-17T08:30:05.914Z,13.80
2017-10-17T08:32:33.463Z,13.90
2017-10-17T08:35:01.041Z,14.00
2017-10-17T08:37:28.609Z,14.10
2017-10-17T08:39:59.253Z,14.20
2017-10-17T08:42:26.842Z,14.40
2017-10-17T08:44:55.157Z,14.60
2017-10-17T08:47:22.729Z,14.60
2017-10-17T08:49:50.306Z,14.80
2017-10-17T08:52:17.906Z,14.90
2017-10-17T08:54:45.484Z,15.10
2017-10-17T08:57:13.075Z,15.30
2017-10-17T08:59:40.635Z,15.40
2017-10-17T09:02:08.205Z,15.60
2017-10-17T09:04:35.766Z,15.70
2017-10-17T09:07:03.385Z,15.80
2017-10-17T09:09:35.171Z,15.90
2017-10-17T09:12:02.755Z,16.00
2017-10-17T09:14:30.370Z,16.10
2017-10-17T09:16:57.987Z,16.20
2017-10-17T09:19:25.658Z,16.20
2017-10-17T09:21:53.983Z,16.50
2017-10-17T09:24:21.563Z,16.50
2017-10-17T09:26:49.146Z,16.60
2017-10-17T09:29:17.451Z,16.80
2017-10-17T09:31:45.043Z,16.80
2017-10-17T09:34:12.598Z,16.90
2017-10-17T09:36:40.174Z,16.90
2017-10-17T09:39:07.715Z,17.00
2017-10-17T09:41:35.273Z,17.20
2017-10-17T09:44:02.862Z,17.30
2017-10-17T09:46:30.434Z,17.30
2017-10-17T09:48:57.971Z,17.40
2017-10-17T09:51:25.521Z,17.50
2017-10-17T09:53:53.111Z,17.50
2017-10-17T09:56:20.673Z,17.60
2017-10-17T09:58:48.262Z,17.70
2017-10-17T10:01:16.587Z,18.10
2017-10-17T10:03:44.167Z,18.10
2017-10-17T10:06:11.708Z,18.30
2017-10-17T10:08:39.264Z,18.40
2017-10-17T10:11:06.819Z,18.50
2017-10-17T10:13:34.387Z,18.50
2017-10-17T10:16:01.943Z,18.70
2017-10-17T10:18:29.530Z,18.90
2017-10-17T10:20:57.094Z,19.10
2017-10-17T10:23:24.672Z,19.40
2017-10-17T10:25:52.988Z,19.90
2017-10-17T10:28:20.551Z,19.90
2017-10-17T10:30:48.123Z,20.00
2017-10-17T10:33:15.683Z,20.40
2017-10-17T10:35:43.244Z,20.60
2017-10-17T10:38:10.804Z,20.70
2017-10-17T10:40:38.397Z,20.80
2017-10-17T10:43:05.954Z,20.90
2017-10-17T10:45:33.525Z,21.20
2017-10-17T10:48:01.843Z,21.70
2017-10-17T10:50:29.392Z,21.60
2017-10-17T10:52:56.966Z,22.00
2017-10-17T10:55:24.536Z,22.10
2017-10-17T10:57:52.096Z,22.50
2017-10-17T11:00:19.629Z,22.50
2017-10-17T11:02:47.208Z,22.70
2017-10-17T11:05:14.769Z,23.00
2017-10-17T11:07:42.296Z,23.40
2017-10-17T11:10:10.610Z,23.50
2017-10-17T11:12:38.225Z,23.50
2017-10-17T11:15:06.555Z,23.90
2017-10-17T11:17:34.123Z,23.90
2017-10-17T11:20:01.706Z,24.00
2017-10-17T11:22:29.280Z,24.20
2017-10-17T11:24:57.621Z,24.20
2017-10-17T11:27:29.581Z,24.10
2017-10-17T11:29:57.151Z,24.20
2017-10-17T11:32:24.734Z,24.20
2017-10-17T11:34:53.146Z,24.80
2017-10-17T11:37:20.734Z,24.70
2017-10-17T11:39:48.275Z,25.20
2017-10-17T11:42:27.812Z,25.40
2017-10-17T11:44:55.374Z,25.90
2017-10-17T11:47:23.023Z,26.70
2017-10-17T11:49:50.595Z,26.80
2017-10-17T11:52:18.139Z,26.80
2017-10-17T11:54:45.690Z,27.10
2017-10-17T11:57:14.019Z,26.60
2017-10-17T11:59:41.579Z,26.60
2017-10-17T12:02:09.127Z,26.50
2017-10-17T12:04:36.692Z,27.30
2017-10-17T12:07:04.267Z,27.80
2017-10-17T12:09:31.861Z,28.20
2017-10-17T12:11:59.397Z,28.40
2017-10-17T12:14:27.663Z,28.10
2017-10-17T12:16:55.233Z,27.50
2017-10-17T12:19:22.804Z,27.30
2017-10-17T12:21:50.381Z,27.10
2017-10-17T12:24:18.726Z,27.60
2017-10-17T12:26:46.270Z,27.50
2017-10-17T12:29:13.854Z,27.10
2017-10-17T12:31:41.423Z,27.20
2017-10-17T12:34:08.980Z,27.50
2017-10-17T12:36:36.530Z,28.00
2017-10-17T12:39:04.105Z,28.40
2017-10-17T12:41:31.645Z,28.40
2017-10-17T12:43:59.205Z,28.80
2017-10-17T12:46:29.253Z,29.00
2017-10-17T12:48:56.836Z,28.80
2017-10-17T12:51:25.171Z,28.70
2017-10-17T12:53:52.731Z,28.60
2017-10-17T12:56:20.274Z,28.00
2017-10-17T12:58:47.825Z,28.50
2017-10-17T13:01:15.377Z,28.90
2017-10-17T13:03:42.955Z,29.10
2017-10-17T13:06:10.523Z,29.50
2017-10-17T13:08:38.082Z,29.50
2017-10-17T13:11:05.673Z,29.90
2017-10-17T13:13:33.238Z,29.60
2017-10-17T13:16:00.815Z,29.70
2017-10-17T13:18:29.170Z,30.00
2017-10-17T13:20:56.736Z,30.00
2017-10-17T13:23:24.302Z,29.20
2017-10-17T13:25:51.861Z,29.60
2017-10-17T13:28:19.429Z,29.20
2017-10-17T13:30:46.970Z,29.10
2017-10-17T13:33:14.535Z,28.80
2017-10-17T13:35:42.086Z,28.80
2017-10-17T13:38:09.646Z,28.60
2017-10-17T13:40:37.205Z,28.60
2017-10-17T13:43:04.764Z,28.50
2017-10-17T13:45:32.360Z,28.40
2017-10-17T13:48:00.675Z,27.50
2017-10-17T13:50:28.232Z,27.50
2017-10-17T13:52:55.781Z,27.50
2017-10-17T13:55:23.338Z,27.90
2017-10-17T13:57:50.897Z,28.00
2017-10-17T14:00:18.476Z,27.90
2017-10-17T14:02:46.053Z,27.40
2017-10-17T14:05:13.669Z,27.50
2017-10-17T14:07:41.998Z,27.20
2017-10-17T14:10:09.576Z,27.20
2017-10-17T14:12:37.155Z,27.20
2017-10-17T14:15:05.473Z,27.30
2017-10-17T14:17:33.079Z,27.30
2017-10-17T14:20:00.649Z,27.40
2017-10-17T14:22:28.961Z,27.40
2017-10-17T14:24:56.539Z,27.40
2017-10-17T14:27:24.105Z,27.10
2017-10-17T14:29:51.683Z,26.90
2017-10-17T14:32:19.253Z,27.10
2017-10-17T14:34:46.830Z,27.40
2017-10-17T14:37:15.212Z,27.50
2017-10-17T14:39:43.572Z,27.40
2017-10-17T14:42:11.134Z,27.40
2017-10-17T14:44:38.685Z,27.10
2017-10-17T14:47:06.238Z,27.10
2017-10-17T14:49:33.802Z,27.00
2017-10-17T14:52:01.368Z,26.80
2017-10-17T14:54:28.944Z,26.70
2017-10-17T14:56:56.507Z,26.40
2017-10-17T14:59:24.850Z,26.00
2017-10-17T15:01:52.395Z,25.90
2017-10-17T15:04:19.983Z,25.80
2017-10-17T15:06:47.566Z,25.50
2017-10-17T15:09:15.140Z,25.00
2017-10-17T15:11:43.087Z,24.80
2017-10-17T15:14:12.256Z,24.50
2017-10-17T15:16:41.255Z,24.40
2017-10-17T15:19:10.806Z,24.30
2017-10-17T15:21:40.667Z,23.90
2017-10-17T15:24:08.245Z,23.80
2017-10-17T15:26:36.595Z,23.50
2017-10-17T15:29:07.991Z,23.50
2017-10-17T15:31:36.890Z,23.40
2017-10-17T15:34:04.614Z,23.30
2017-10-17T15:36:32.233Z,23.00
2017-10-17T15:38:59.830Z,22.80
2017-10-17T15:41:27.412Z,22.70
2017-10-17T15:43:55.021Z,22.50
2017-10-17T15:46:22.596Z,22.40
2017-10-17T15:48:50.148Z,22.20
2017-10-17T15:51:17.777Z,22.10
2017-10-17T15:53:45.393Z,21.90
2017-10-17T15:56:12.927Z,21.70
2017-10-17T15:58:40.508Z,21.60
2017-10-17T16:01:08.909Z,21.20
2017-10-17T16:03:36.467Z,21.20
2017-10-17T16:06:04.045Z,21.10
2017-10-17T16:08:32.781Z,20.90
2017-10-17T16:11:00.331Z,20.80
2017-10-17T16:13:27.972Z,20.60
2017-10-17T16:15:56.314Z,20.40
2017-10-17T16:18:24.136Z,20.30
2017-10-17T16:20:51.746Z,20.30
2017-10-17T16:23:20.220Z,20.10
2017-10-17T16:25:47.910Z,19.90
2017-10-17T16:28:15.501Z,19.70
2017-10-17T16:30:43.112Z,19.60
2017-10-17T16:33:10.651Z,19.50
2017-10-17T16:35:38.378Z,19.30
2017-10-17T16:38:06.677Z,19.00
2017-10-17T16:40:34.231Z,19.00
2017-10-17T16:43:01.849Z,18.90
2017-10-17T16:45:29.547Z,18.70
2017-10-17T16:47:57.868Z,18.40
2017-10-17T16:50:25.429Z,18.40
2017-10-17T16:52:52.982Z,18.30
2017-10-17T16:55:20.557Z,18.20
2017-10-17T16:57:48.128Z,18.10
2017-10-17T17:00:15.893Z,18.00
2017-10-17T17:02:43.492Z,17.90
2017-10-17T17:05:12.014Z,17.70
2017-10-17T17:07:39.723Z,17.70
2017-10-17T17:10:09.575Z,17.40
2017-10-17T17:12:37.181Z,17.40
2017-10-17T17:15:04.856Z,17.40
2017-10-17T17:17:33.601Z,17.10
2017-10-17T17:20:01.186Z,17.10
2017-10-17T17:22:28.816Z,17.00
2017-10-17T17:24:56.377Z,16.90
2017-10-17T17:27:23.938Z,16.80
2017-10-17T17:29:51.532Z,16.70
2017-10-17T17:32:19.103Z,16.60
2017-10-17T17:34:47.462Z,16.50
2017-10-17T17:37:15.058Z,16.50
2017-10-17T17:39:43.389Z,16.30
2017-10-17T17:42:10.957Z,16.30
2017-10-17T17:44:38.531Z,16.20
2017-10-17T17:47:06.126Z,16.10
2017-10-17T17:49:34.481Z,15.90
2017-10-17T17:52:02.065Z,15.90
2017-10-17T17:54:30.378Z,15.70
2017-10-17T17:56:57.968Z,15.70
2017-10-17T17:59:25.516Z,15.60
2017-10-17T18:01:53.185Z,15.50
2017-10-17T18:04:20.748Z,15.50
2017-10-17T18:06:48.519Z,15.30
2017-10-17T18:09:16.289Z,15.30
2017-10-17T18:11:43.869Z,15.20
2017-10-17T18:14:11.675Z,15.10
2017-10-17T18:16:39.468Z,15.10
2017-10-17T18:19:07.082Z,15.10
2017-10-17T18:21:35.534Z,15.00
2017-10-17T18:24:03.102Z,15.00
2017-10-17T18:26:30.897Z,15.00
2017-10-17T18:28:58.632Z,14.90
2017-10-17T18:31:26.206Z,14.80
2017-10-17T18:33:54.512Z,14.60
2017-10-17T18:36:22.106Z,14.60
2017-10-17T18:38:49.773Z,14.60
2017-10-17T18:41:17.403Z,14.60
2017-10-17T18:43:46.990Z,14.60
2017-10-17T18:46:15.361Z,14.50
2017-10-17T18:48:42.946Z,14.50
2017-10-17T18:51:10.680Z,14.40
2017-10-17T18:53:39.191Z,14.30
2017-10-17T18:56:06.782Z,14.20
2017-10-17T18:58:34.349Z,14.20
2017-10-17T19:01:02.737Z,14.10
2017-10-17T19:03:30.554Z,14.10
2017-10-17T19:05:58.186Z,14.00
2017-10-17T19:08:26.526Z,14.00
2017-10-17T19:10:54.104Z,14.00
2017-10-17T19:13:21.892Z,14.00
2017-10-17T19:15:51.366Z,13.80
2017-10-17T19:18:19.291Z,13.70
2017-10-17T19:20:46.894Z,13.70
2017-10-17T19:23:14.489Z,13.60
2017-10-17T19:25:42.118Z,13.60
2017-10-17T19:28:10.040Z,13.60
2017-10-17T19:30:37.660Z,13.60
2017-10-17T19:33:05.316Z,13.50
2017-10-17T19:35:32.919Z,13.50
2017-10-17T19:38:01.453Z,13.40
2017-10-17T19:40:29.789Z,13.40
2017-10-17T19:42:57.388Z,13.40
2017-10-17T19:45:25.147Z,13.40
2017-10-17T19:47:52.829Z,13.30
2017-10-17T19:50:20.788Z,13.30
2017-10-17T19:52:48.349Z,13.20
2017-10-17T19:55:15.922Z,13.20
2017-10-17T19:57:43.527Z,13.10
2017-10-17T20:00:11.834Z,13.00
2017-10-17T20:02:40.267Z,12.90
2017-10-17T20:05:07.986Z,13.00
2017-10-17T20:07:35.773Z,12.90
2017-10-17T20:10:05.053Z,12.90
2017-10-17T20:12:32.651Z,12.80
2017-10-17T20:15:00.744Z,12.80
2017-10-17T20:17:29.661Z,12.70
2017-10-17T20:19:58.359Z,12.70
2017-10-17T20:22:25.965Z,12.70
2017-10-17T20:24:53.547Z,12.60
2017-10-17T20:27:22.294Z,12.50
2017-10-17T20:29:50.405Z,12.50
2017-10-17T20:32:18.404Z,12.50
2017-10-17T20:34:46.034Z,12.50
2017-10-17T20:37:14.375Z,12.30
2017-10-17T20:39:42.375Z,12.30
2017-10-17T20:42:10.433Z,12.20
2017-10-17T20:44:38.755Z,12.20
2017-10-17T20:47:06.353Z,12.20
2017-10-17T20:49:33.957Z,12.10
2017-10-17T20:52:02.322Z,12.00
2017-10-17T20:54:30.350Z,11.90
2017-10-17T20:56:58.896Z,12.00
2017-10-17T20:59:26.521Z,11.90
2017-10-17T21:01:54.110Z,11.80
2017-10-17T21:04:22.612Z,11.70
2017-10-17T21:06:50.580Z,11.70
2017-10-17T21:09:18.988Z,11.70
2017-10-17T21:11:46.620Z,11.70
2017-10-17T21:14:14.198Z,11.80
2017-10-17T21:16:42.179Z,11.80
2017-10-17T21:19:10.136Z,11.70
2017-10-17T21:21:37.952Z,11.70
2017-10-17T21:24:05.681Z,11.70
2017-10-17T21:26:33.999Z,11.70
2017-10-17T21:29:01.701Z,11.60
2017-10-17T21:31:29.249Z,11.60
2017-10-17T21:33:57.570Z,11.50
2017-10-17T21:36:25.119Z,11.50
2017-10-17T21:38:52.717Z,11.50
2017-10-17T21:41:20.265Z,11.50
2017-10-17T21:43:47.825Z,11.50
2017-10-17T21:46:15.383Z,11.40
2017-10-17T21:48:42.954Z,11.40
2017-10-17T21:51:10.498Z,11.40
2017-10-17T21:53:38.054Z,11.40
2017-10-17T21:56:05.644Z,11.40
2017-10-17T21:58:33.210Z,11.30
2017-10-17T22:01:02.792Z,11.30
2017-10-17T22:03:30.388Z,11.30
2017-10-17T22:05:57.973Z,11.30
2017-10-17T22:08:25.521Z,11.30
2017-10-17T22:10:53.864Z,11.20
2017-10-17T22:13:21.423Z,11.20
2017-10-17T22:15:48.999Z,11.20
2017-10-17T22:18:16.580Z,11.10
2017-10-17T22:20:44.913Z,11.10
2017-10-17T22:23:12.481Z,11.10
2017-10-17T22:25:40.067Z,11.00
2017-10-17T22:28:08.399Z,11.00
2017-10-17T22:30:35.953Z,10.90
2017-10-17T22:33:03.501Z,10.90
2017-10-17T22:35:31.072Z,10.90
2017-10-17T22:37:58.624Z,10.90
2017-10-17T22:40:26.202Z,10.80
2017-10-17T22:42:53.756Z,10.70
2017-10-17T22:45:21.322Z,10.70
2017-10-17T22:47:48.881Z,10.70
2017-10-17T22:50:16.466Z,10.70
2017-10-17T22:52:44.026Z,10.70
2017-10-17T22:55:11.603Z,10.60
2017-10-17T22:57:39.928Z,10.60
2017-10-17T23:00:07.476Z,10.60
2017-10-17T23:02:35.043Z,10.60
2017-10-17T23:05:02.630Z,10.50
2017-10-17T23:07:30.226Z,10.50
2017-10-17T23:09:58.614Z,10.50
2017-10-17T23:12:26.951Z,10.40
2017-10-17T23:14:54.521Z,10.40
2017-10-17T23:17:33.959Z,10.40
2017-10-17T23:20:13.342Z,10.40
2017-10-17T23:22:40.902Z,10.40
2017-10-17T23:25:08.488Z,10.40
2017-10-17T23:27:36.068Z,10.40
2017-10-17T23:30:03.663Z,10.40
2017-10-17T23:32:31.969Z,10.30
2017-10-17T23:34:59.516Z,10.30
2017-10-17T23:37:27.082Z,10.30
2017-10-17T23:39:54.648Z,10.30
2017-10-17T23:42:22.216Z,10.30
2017-10-17T23:44:49.769Z,10.20
2017-10-17T23:47:17.341Z,10.20
2017-10-17T23:49:44.887Z,10.20
2017-10-17T23:52:12.480Z,10.20
2017-10-17T23:54:40.049Z,10.20
2017-10-17T23:57:07.609Z,10.20
2017-10-17T23:59:35.164Z,10.20
